Time;durP1;ratioP1;P1;durP2;ratioP2;P2;SDS_P1;SDS_P2;PMS_P1;PMS_P2;Temp;Humidity;BMP_temperature;BMP_pressure;BME280_temperature;BME280_humidity;BME280_pressure;Samples;Min_cycle;Max_cycle;Signal;HPM_P1;HPM_P2
2023/12/17 00:01:28;;;;;;;16.30;7.05;;;9.30;99.90;;;;;;5065462;28;20072;-81
2023/12/17 00:03:53;;;;;;;14.10;7.15;;;9.30;99.90;;;;;;5069485;28;20079;-81
2023/12/17 00:06:19;;;;;;;15.65;6.57;;;9.30;99.90;;;;;;5070091;28;20534;-80
2023/12/17 00:08:45;;;;;;;15.30;6.75;;;9.30;99.90;;;;;;5070217;28;20057;-81
2023/12/17 00:11:11;;;;;;;14.05;6.85;;;9.30;99.90;;;;;;5053548;28;20417;-81
2023/12/17 00:13:37;;;;;;;15.35;6.60;;;9.30;99.90;;;;;;5050116;28;20049;-81
2023/12/17 00:16:04;;;;;;;14.50;5.90;;;9.30;99.90;;;;;;5065690;28;20044;-81
2023/12/17 00:18:29;;;;;;;14.80;6.43;;;9.30;99.90;;;;;;5055403;28;20401;-81
2023/12/17 00:20:56;;;;;;;20.20;6.50;;;9.30;99.90;;;;;;5063273;28;20063;-81
2023/12/17 00:23:22;;;;;;;18.48;6.40;;;9.30;99.90;;;;;;5056994;28;20041;-81
2023/12/17 00:25:47;;;;;;;11.93;5.60;;;9.30;99.90;;;;;;5052627;28;20554;-81
2023/12/17 00:28:13;;;;;;;12.93;7.00;;;9.30;99.90;;;;;;5050216;28;20084;-81
2023/12/17 00:30:38;;;;;;;16.15;7.75;;;9.40;99.90;;;;;;5050724;28;20120;-81
2023/12/17 00:33:04;;;;;;;12.75;6.55;;;9.30;99.90;;;;;;5056087;28;20150;-80
2023/12/17 00:35:30;;;;;;;15.00;5.82;;;9.30;99.90;;;;;;5034467;28;20381;-81
2023/12/17 00:37:55;;;;;;;13.25;6.07;;;9.40;99.90;;;;;;5054534;28;20432;-82
2023/12/17 00:40:21;;;;;;;13.43;7.38;;;9.30;99.90;;;;;;5052149;28;20053;-81
2023/12/17 00:42:47;;;;;;;12.93;6.78;;;9.30;99.90;;;;;;5065449;28;20212;-82
2023/12/17 00:45:12;;;;;;;13.65;6.90;;;9.30;99.90;;;;;;5067854;28;20040;-81
2023/12/17 00:47:38;;;;;;;13.68;6.75;;;9.30;99.90;;;;;;5069777;28;20395;-81
2023/12/17 00:50:04;;;;;;;12.35;6.45;;;9.40;99.90;;;;;;5065091;28;20054;-81
2023/12/17 00:52:32;;;;;;;13.75;6.72;;;9.40;99.90;;;;;;5069952;28;20040;-81
2023/12/17 00:54:57;;;;;;;13.00;5.78;;;9.30;99.90;;;;;;5058811;28;20044;-81
2023/12/17 00:57:23;;;;;;;13.43;5.82;;;9.40;99.90;;;;;;5062179;28;20094;-81
2023/12/17 00:59:49;;;;;;;12.63;6.13;;;9.40;99.90;;;;;;5069959;28;20044;-81
2023/12/17 01:02:14;;;;;;;10.90;6.72;;;9.40;99.90;;;;;;5049041;28;20123;-80
2023/12/17 01:04:40;;;;;;;17.27;6.28;;;9.40;99.90;;;;;;5056032;28;20049;-81
2023/12/17 01:07:05;;;;;;;16.40;6.07;;;9.70;99.90;;;;;;5053082;28;20056;-81
2023/12/17 01:09:31;;;;;;;13.68;6.07;;;9.40;99.90;;;;;;5063864;28;20045;-81
2023/12/17 01:11:58;;;;;;;11.40;5.95;;;9.40;99.90;;;;;;5060862;28;20128;-81
2023/12/17 01:14:24;;;;;;;10.60;5.78;;;9.40;99.90;;;;;;5053059;28;20111;-81
2023/12/17 01:16:50;;;;;;;14.45;6.30;;;9.40;99.90;;;;;;5069296;28;20488;-81
2023/12/17 01:19:16;;;;;;;12.48;6.20;;;9.40;99.90;;;;;;5072362;28;20053;-81
2023/12/17 01:21:42;;;;;;;13.70;6.45;;;9.90;99.90;;;;;;5066328;28;20036;-81
2023/12/17 01:24:08;;;;;;;13.80;6.72;;;9.90;99.90;;;;;;5055617;28;20431;-81
2023/12/17 01:26:35;;;;;;;10.20;5.70;;;9.40;99.90;;;;;;5066570;28;20053;-80
2023/12/17 01:29:01;;;;;;;14.13;6.63;;;9.40;99.90;;;;;;5061794;28;20075;-81
2023/12/17 01:31:26;;;;;;;13.20;5.80;;;9.30;99.90;;;;;;5067346;28;20123;-81
2023/12/17 01:33:52;;;;;;;11.98;6.60;;;9.40;99.90;;;;;;5064547;28;20049;-81
2023/12/17 01:36:18;;;;;;;12.13;5.53;;;9.40;99.90;;;;;;5058526;28;20052;-81
2023/12/17 01:38:44;;;;;;;10.82;5.43;;;9.40;99.90;;;;;;5064471;28;20131;-81
2023/12/17 01:41:10;;;;;;;12.50;6.25;;;9.40;99.90;;;;;;5036150;28;20082;-81
2023/12/17 01:43:36;;;;;;;13.90;6.05;;;9.40;99.90;;;;;;5056411;28;20048;-81
2023/12/17 01:46:04;;;;;;;17.30;6.70;;;9.40;99.90;;;;;;5055353;28;20135;-81
2023/12/17 01:48:30;;;;;;;16.08;6.30;;;9.50;99.90;;;;;;5072613;28;20127;-81
2023/12/17 01:50:56;;;;;;;14.50;6.53;;;9.40;99.90;;;;;;5057174;28;20052;-81
2023/12/17 01:53:23;;;;;;;13.32;6.40;;;9.40;99.90;;;;;;5052588;28;20429;-81
2023/12/17 01:55:50;;;;;;;12.45;6.32;;;9.40;99.90;;;;;;5057071;28;20048;-80
2023/12/17 01:58:17;;;;;;;12.35;5.88;;;9.60;99.90;;;;;;5065403;28;20553;-82
2023/12/17 02:00:48;;;;;;;13.07;6.45;;;9.40;99.90;;;;;;5060232;28;20545;-82
2023/12/17 02:03:13;;;;;;;16.67;6.72;;;9.40;99.90;;;;;;5058658;28;20110;-81
2023/12/17 02:05:39;;;;;;;12.27;6.88;;;9.90;99.90;;;;;;5063343;28;20480;-81
2023/12/17 02:08:05;;;;;;;13.82;6.35;;;9.40;99.90;;;;;;5053828;28;20064;-80
2023/12/17 02:10:31;;;;;;;13.10;6.13;;;9.40;99.90;;;;;;5064435;28;20049;-82
2023/12/17 02:13:00;;;;;;;14.05;6.28;;;9.40;99.90;;;;;;5051697;28;20491;-81
2023/12/17 02:15:25;;;;;;;13.88;6.15;;;9.40;99.90;;;;;;5062499;28;20048;-81
2023/12/17 02:17:51;;;;;;;13.38;5.47;;;9.40;99.90;;;;;;5055909;28;20504;-81
2023/12/17 02:20:17;;;;;;;10.48;5.38;;;9.40;99.90;;;;;;5058541;28;20131;-81
2023/12/17 02:22:44;;;;;;;15.50;6.13;;;9.40;99.90;;;;;;5050963;28;20049;-81
2023/12/17 02:25:10;;;;;;;16.25;5.45;;;9.40;99.90;;;;;;5063458;28;20040;-81
2023/12/17 02:27:35;;;;;;;10.80;5.57;;;9.40;99.90;;;;;;5057419;28;20394;-81
2023/12/17 02:30:01;;;;;;;15.88;7.00;;;9.40;99.90;;;;;;5060471;28;20075;-81
2023/12/17 02:32:27;;;;;;;19.50;7.30;;;9.40;99.90;;;;;;5063653;28;20068;-81
2023/12/17 02:34:53;;;;;;;13.00;6.10;;;9.40;99.90;;;;;;5070669;28;20051;-81
2023/12/17 02:37:19;;;;;;;15.48;6.05;;;9.40;99.90;;;;;;5062045;28;20440;-81
2023/12/17 02:39:44;;;;;;;12.48;6.47;;;9.40;99.90;;;;;;5052597;28;20097;-81
2023/12/17 02:42:10;;;;;;;12.63;5.97;;;9.40;99.90;;;;;;5054196;28;20488;-81
2023/12/17 02:44:36;;;;;;;9.75;6.07;;;9.40;99.90;;;;;;5055018;28;20803;-81
2023/12/17 02:47:02;;;;;;;17.00;6.85;;;9.40;99.90;;;;;;5063710;28;20049;-82
2023/12/17 02:49:28;;;;;;;15.23;7.07;;;9.40;99.90;;;;;;5051858;28;20098;-82
2023/12/17 02:51:55;;;;;;;18.88;7.03;;;9.40;99.90;;;;;;5067019;28;20052;-81
2023/12/17 02:54:23;;;;;;;16.08;6.45;;;9.40;99.90;;;;;;5060019;28;20516;-82
2023/12/17 02:56:49;;;;;;;15.95;6.47;;;9.40;99.90;;;;;;5068984;28;20381;-82
2023/12/17 02:59:15;;;;;;;12.50;6.30;;;9.40;99.90;;;;;;5060546;28;20189;-81
2023/12/17 03:01:42;;;;;;;15.02;6.40;;;9.50;99.90;;;;;;5067477;28;20124;-81
2023/12/17 03:04:08;;;;;;;14.50;7.13;;;9.40;99.90;;;;;;5066692;28;20048;-81
2023/12/17 03:06:35;;;;;;;15.40;7.43;;;9.40;99.90;;;;;;5060301;28;20041;-81
2023/12/17 03:09:00;;;;;;;14.50;7.45;;;9.40;99.90;;;;;;5064470;28;20395;-81
2023/12/17 03:11:26;;;;;;;15.63;6.90;;;9.40;99.90;;;;;;5063390;28;20056;-81
2023/12/17 03:13:52;;;;;;;12.13;6.45;;;9.40;99.90;;;;;;5067346;28;20033;-81
2023/12/17 03:16:18;;;;;;;19.13;7.18;;;9.40;99.90;;;;;;5050531;28;20488;-80
2023/12/17 03:18:43;;;;;;;13.02;6.82;;;9.40;99.90;;;;;;5050269;28;20048;-82
2023/12/17 03:21:09;;;;;;;11.90;6.72;;;9.40;99.90;;;;;;5055002;28;20045;-81
2023/12/17 03:23:35;;;;;;;12.82;6.05;;;9.40;99.90;;;;;;5054009;28;20063;-81
2023/12/17 03:26:02;;;;;;;13.32;6.65;;;9.50;99.90;;;;;;5060428;28;20044;-82
2023/12/17 03:28:28;;;;;;;20.10;6.95;;;9.40;99.90;;;;;;5070769;28;20123;-80
2023/12/17 03:30:53;;;;;;;15.10;7.15;;;9.40;99.90;;;;;;5057639;28;21829;-81
2023/12/17 03:33:19;;;;;;;16.60;6.75;;;9.50;99.90;;;;;;5067160;28;20063;-81
2023/12/17 03:35:44;;;;;;;15.65;6.68;;;9.50;99.90;;;;;;5056890;28;20510;-81
2023/12/17 03:38:11;;;;;;;12.13;6.60;;;9.50;99.90;;;;;;5071487;28;20059;-82
2023/12/17 03:40:37;;;;;;;19.42;7.05;;;9.50;99.90;;;;;;5059399;28;20082;-80
2023/12/17 03:43:02;;;;;;;21.08;7.38;;;9.40;99.90;;;;;;5070955;28;20062;-81
2023/12/17 03:45:28;;;;;;;17.98;7.38;;;9.40;99.90;;;;;;5064537;28;20111;-82
2023/12/17 03:47:54;;;;;;;13.10;6.47;;;9.80;99.90;;;;;;5051564;28;20077;-81
2023/12/17 03:50:20;;;;;;;17.42;7.25;;;9.40;99.90;;;;;;5044056;28;20048;-81
2023/12/17 03:52:47;;;;;;;16.80;7.18;;;9.50;99.90;;;;;;5066292;28;20052;-80
2023/12/17 03:55:14;;;;;;;18.13;7.07;;;9.50;99.90;;;;;;5070513;28;20226;-81
2023/12/17 03:57:40;;;;;;;16.75;6.45;;;9.50;99.90;;;;;;5068976;28;20114;-81
2023/12/17 04:00:06;;;;;;;12.55;6.80;;;9.40;99.90;;;;;;5070032;28;20576;-81
2023/12/17 04:02:33;;;;;;;12.35;6.75;;;9.50;99.90;;;;;;5046779;28;20055;-82
2023/12/17 04:04:59;;;;;;;13.80;6.65;;;9.50;99.90;;;;;;5050400;28;20538;-81
2023/12/17 04:07:30;;;;;;;14.90;6.45;;;9.50;99.90;;;;;;5051415;28;20146;-81
2023/12/17 04:09:57;;;;;;;13.95;7.30;;;9.90;99.90;;;;;;5033553;28;20048;-82
2023/12/17 04:12:23;;;;;;;17.42;6.63;;;9.40;99.90;;;;;;5054678;28;20046;-81
2023/12/17 04:14:49;;;;;;;15.18;5.95;;;9.50;99.90;;;;;;5061488;28;20048;-81
2023/12/17 04:17:15;;;;;;;15.88;6.10;;;9.50;99.90;;;;;;5053092;28;20095;-81
2023/12/17 04:19:40;;;;;;;14.25;6.72;;;9.50;99.90;;;;;;5062137;28;20480;-81
2023/12/17 04:22:06;;;;;;;13.00;6.68;;;9.50;99.90;;;;;;5041185;28;20075;-80
2023/12/17 04:24:32;;;;;;;14.70;6.70;;;9.50;99.90;;;;;;5050180;28;20052;-81
2023/12/17 04:26:57;;;;;;;14.90;6.45;;;9.50;99.90;;;;;;5061941;28;20110;-81
2023/12/17 04:29:23;;;;;;;24.27;6.32;;;9.50;99.90;;;;;;5067546;28;20125;-81
2023/12/17 04:31:49;;;;;;;13.63;6.50;;;9.50;99.90;;;;;;5053210;28;20040;-81
2023/12/17 04:34:14;;;;;;;16.15;6.60;;;9.50;99.90;;;;;;5068745;28;20048;-81
2023/12/17 04:36:41;;;;;;;15.23;7.05;;;9.50;99.90;;;;;;5064853;28;20127;-81
2023/12/17 04:39:07;;;;;;;15.55;7.15;;;9.50;99.90;;;;;;5053693;28;20119;-82
2023/12/17 04:41:33;;;;;;;15.65;7.10;;;9.50;99.90;;;;;;5064698;28;20161;-81
2023/12/17 04:43:59;;;;;;;12.60;7.05;;;9.50;99.90;;;;;;5061131;28;20047;-81
2023/12/17 04:46:28;;;;;;;13.77;6.38;;;9.50;99.90;;;;;;5036507;28;20064;-81
2023/12/17 04:48:54;;;;;;;16.83;6.50;;;9.50;99.90;;;;;;5052868;28;20384;-81
2023/12/17 04:51:21;;;;;;;13.10;5.68;;;9.50;99.90;;;;;;5055045;28;20106;-81
2023/12/17 04:53:47;;;;;;;17.23;6.80;;;9.50;99.90;;;;;;5058441;28;20076;-82
2023/12/17 04:56:13;;;;;;;15.75;7.03;;;9.50;99.90;;;;;;5053086;28;20083;-80
2023/12/17 04:58:38;;;;;;;15.07;7.90;;;9.40;99.90;;;;;;5072064;28;20053;-81
2023/12/17 05:01:04;;;;;;;16.23;7.20;;;9.60;99.90;;;;;;5059858;28;20583;-81
2023/12/17 05:03:31;;;;;;;14.35;7.28;;;9.50;99.90;;;;;;5065581;28;20572;-81
2023/12/17 05:05:57;;;;;;;18.10;8.00;;;9.50;99.90;;;;;;5053452;28;20040;-81
2023/12/17 05:08:23;;;;;;;17.80;7.35;;;9.40;99.90;;;;;;5064796;28;20132;-82
2023/12/17 05:10:49;;;;;;;17.55;7.55;;;9.40;99.90;;;;;;5065795;28;20040;-81
2023/12/17 05:13:15;;;;;;;14.95;6.93;;;9.40;99.90;;;;;;5057247;28;20131;-81
2023/12/17 05:15:40;;;;;;;14.50;7.05;;;9.40;99.90;;;;;;5052686;28;20049;-81
2023/12/17 05:18:06;;;;;;;13.15;7.65;;;9.40;99.90;;;;;;5068582;28;20044;-80
2023/12/17 05:20:32;;;;;;;12.65;7.03;;;9.50;99.90;;;;;;5046713;28;20484;-82
2023/12/17 05:22:57;;;;;;;13.30;7.28;;;9.40;99.90;;;;;;5069952;28;20048;-81
2023/12/17 05:25:23;;;;;;;15.15;7.45;;;9.50;99.90;;;;;;5059515;28;20079;-81
2023/12/17 05:27:49;;;;;;;13.40;7.45;;;9.40;99.90;;;;;;5068850;28;20076;-80
2023/12/17 05:30:15;;;;;;;14.77;8.18;;;9.40;99.90;;;;;;5065400;28;20791;-81
2023/12/17 05:32:40;;;;;;;13.95;8.40;;;9.40;99.90;;;;;;5054559;28;20082;-80
2023/12/17 05:35:07;;;;;;;14.05;7.85;;;9.40;99.90;;;;;;5074373;28;20376;-81
2023/12/17 05:37:32;;;;;;;16.58;7.78;;;9.40;99.90;;;;;;5058793;28;20084;-82
2023/12/17 05:39:58;;;;;;;14.73;8.00;;;9.40;99.90;;;;;;5071449;28;20067;-82
2023/12/17 05:42:24;;;;;;;14.02;6.53;;;9.40;99.90;;;;;;5068111;28;20486;-80
2023/12/17 05:44:50;;;;;;;15.30;6.90;;;9.30;99.90;;;;;;5072109;28;20036;-80
2023/12/17 05:47:16;;;;;;;13.27;6.32;;;9.40;99.90;;;;;;5058572;28;20194;-81
2023/12/17 05:49:42;;;;;;;12.55;6.10;;;9.40;99.90;;;;;;5065413;28;20076;-82
2023/12/17 05:52:08;;;;;;;12.80;6.22;;;9.70;99.90;;;;;;5066214;28;20045;-81
2023/12/17 05:54:35;;;;;;;13.60;6.00;;;9.60;99.90;;;;;;5068633;28;20048;-81
2023/12/17 05:57:01;;;;;;;14.48;6.00;;;9.60;99.90;;;;;;5067626;28;20527;-81
2023/12/17 05:59:26;;;;;;;14.52;6.20;;;9.40;99.90;;;;;;5072283;28;20053;-81
2023/12/17 06:01:52;;;;;;;14.90;6.70;;;9.30;99.90;;;;;;5055741;28;20060;-82
2023/12/17 06:04:18;;;;;;;13.75;5.68;;;9.30;99.90;;;;;;5067314;28;20029;-81
2023/12/17 06:06:44;;;;;;;14.48;5.93;;;9.30;99.90;;;;;;5057940;28;20119;-81
2023/12/17 06:09:09;;;;;;;14.18;5.57;;;9.60;99.90;;;;;;5061379;28;20086;-82
2023/12/17 06:11:35;;;;;;;11.00;4.68;;;9.30;99.90;;;;;;5052698;28;20106;-81
2023/12/17 06:14:03;;;;;;;10.88;5.22;;;9.30;99.90;;;;;;5058056;28;20472;-81
2023/12/17 06:16:29;;;;;;;11.57;5.15;;;9.40;99.90;;;;;;5070276;28;20043;-82
2023/12/17 06:18:55;;;;;;;13.52;5.30;;;9.40;99.90;;;;;;5060657;28;20489;-81
2023/12/17 06:21:25;;;;;;;10.80;5.03;;;9.20;99.90;;;;;;5053689;28;20088;-81
2023/12/17 06:23:57;;;;;;;9.48;4.78;;;9.20;99.90;;;;;;5040109;28;20132;-81
2023/12/17 06:26:26;;;;;;;9.63;4.32;;;9.50;99.90;;;;;;5073878;28;20075;-81
2023/12/17 06:28:52;;;;;;;8.98;5.15;;;9.30;99.90;;;;;;5070378;28;20524;-82
2023/12/17 06:31:18;;;;;;;9.98;5.22;;;9.70;99.90;;;;;;5052036;28;20095;-81
2023/12/17 06:33:44;;;;;;;10.38;5.20;;;9.20;99.90;;;;;;5063417;28;20048;-81
2023/12/17 06:36:10;;;;;;;10.02;4.95;;;9.20;99.90;;;;;;5064090;28;20056;-81
2023/12/17 06:38:37;;;;;;;12.20;5.47;;;9.20;99.90;;;;;;5071604;28;20142;-81
2023/12/17 06:41:03;;;;;;;8.85;4.80;;;9.20;99.90;;;;;;5070662;28;20400;-81
2023/12/17 06:43:29;;;;;;;12.43;5.03;;;9.20;99.90;;;;;;5038145;28;20037;-81
2023/12/17 06:45:55;;;;;;;12.85;5.28;;;9.20;99.90;;;;;;5067339;28;20056;-81
2023/12/17 06:48:20;;;;;;;8.85;4.40;;;9.30;99.90;;;;;;5068364;28;20472;-81
2023/12/17 06:50:46;;;;;;;13.70;5.15;;;9.10;99.90;;;;;;5052758;28;20060;-81
2023/12/17 06:53:15;;;;;;;13.15;4.63;;;9.20;99.90;;;;;;5058102;28;20045;-82
2023/12/17 06:55:44;;;;;;;10.13;4.85;;;9.50;99.90;;;;;;5059884;28;20049;-81
2023/12/17 06:58:10;;;;;;;10.27;4.32;;;9.20;99.90;;;;;;5067923;28;20123;-81
2023/12/17 07:00:36;;;;;;;14.73;4.90;;;9.80;99.90;;;;;;5057306;28;20052;-80
2023/12/17 07:03:02;;;;;;;9.35;3.97;;;9.20;99.90;;;;;;5065636;28;20404;-81
2023/12/17 07:05:28;;;;;;;9.45;4.10;;;9.20;99.90;;;;;;5062835;28;20044;-81
2023/12/17 07:07:54;;;;;;;9.60;3.95;;;9.20;99.90;;;;;;5063065;28;20044;-81
2023/12/17 07:10:20;;;;;;;9.82;3.75;;;9.20;99.90;;;;;;5061098;28;20051;-82
2023/12/17 07:12:46;;;;;;;14.27;4.78;;;9.40;99.90;;;;;;5060654;28;20052;-81
2023/12/17 07:15:12;;;;;;;12.40;4.53;;;9.10;99.90;;;;;;5063655;28;20050;-81
2023/12/17 07:17:38;;;;;;;11.30;4.75;;;9.10;99.90;;;;;;5059515;28;20049;-82
2023/12/17 07:20:04;;;;;;;9.15;3.80;;;9.20;99.90;;;;;;5061948;28;20056;-82
2023/12/17 07:22:30;;;;;;;11.13;4.50;;;9.20;99.90;;;;;;5053172;28;20041;-81
2023/12/17 07:24:55;;;;;;;12.82;4.85;;;9.10;99.90;;;;;;5057291;28;20052;-81
2023/12/17 07:27:21;;;;;;;10.68;4.50;;;9.10;99.90;;;;;;5058151;28;20048;-81
2023/12/17 07:29:47;;;;;;;13.65;5.30;;;9.10;99.90;;;;;;5067792;28;20045;-82
2023/12/17 07:32:13;;;;;;;11.60;6.20;;;9.20;99.90;;;;;;5061224;28;20098;-81
2023/12/17 07:34:38;;;;;;;14.57;6.30;;;9.20;99.90;;;;;;5038048;28;20053;-82
2023/12/17 07:37:04;;;;;;;11.23;5.35;;;9.50;99.90;;;;;;5054057;28;20080;-82
2023/12/17 07:39:30;;;;;;;10.55;5.47;;;9.20;99.90;;;;;;5039589;28;20037;-82
2023/12/17 07:41:55;;;;;;;14.32;6.07;;;9.20;99.90;;;;;;5062495;28;20056;-81
2023/12/17 07:44:21;;;;;;;16.00;6.28;;;9.20;99.90;;;;;;5052937;28;20119;-81
2023/12/17 07:46:47;;;;;;;9.95;5.65;;;9.10;99.90;;;;;;5059502;28;20089;-81
2023/12/17 07:49:12;;;;;;;12.73;6.32;;;9.20;99.90;;;;;;5066977;28;20041;-81
2023/12/17 07:51:38;;;;;;;13.07;6.35;;;9.10;99.90;;;;;;5056267;28;20399;-82
2023/12/17 07:54:07;;;;;;;17.02;6.70;;;9.30;99.90;;;;;;5061418;28;20139;-81
2023/12/17 07:56:33;;;;;;;16.08;7.03;;;9.20;99.90;;;;;;5059367;28;20040;-82
2023/12/17 07:58:59;;;;;;;15.75;6.85;;;9.10;99.90;;;;;;5060175;28;20051;-82
2023/12/17 08:01:28;;;;;;;14.10;7.15;;;9.10;99.90;;;;;;5057998;28;20060;-82
2023/12/17 08:03:55;;;;;;;12.65;7.00;;;9.20;99.90;;;;;;5062530;28;20041;-81
2023/12/17 08:06:21;;;;;;;16.90;7.57;;;9.20;99.90;;;;;;5049735;28;20037;-80
2023/12/17 08:08:47;;;;;;;15.25;7.57;;;9.20;99.90;;;;;;5050494;28;20041;-80
2023/12/17 08:11:12;;;;;;;17.00;8.25;;;9.40;99.90;;;;;;5062491;28;20460;-81
2023/12/17 08:13:39;;;;;;;16.13;8.13;;;9.20;99.90;;;;;;5066628;28;20084;-82
2023/12/17 08:16:05;;;;;;;19.40;8.95;;;9.10;99.90;;;;;;5069054;28;20178;-81
2023/12/17 08:18:31;;;;;;;20.27;8.60;;;9.10;99.90;;;;;;5050672;28;20764;-80
2023/12/17 08:20:57;;;;;;;18.60;9.25;;;9.10;99.90;;;;;;5062537;28;20052;-82
2023/12/17 08:23:23;;;;;;;17.70;10.05;;;9.10;99.90;;;;;;5067161;28;20384;-81
2023/12/17 08:25:49;;;;;;;22.30;9.95;;;9.10;99.90;;;;;;5074617;28;20052;-82
2023/12/17 08:28:16;;;;;;;15.30;9.77;;;9.10;99.90;;;;;;5075519;28;20048;-83
2023/12/17 08:30:42;;;;;;;22.77;10.63;;;9.10;99.90;;;;;;5075400;28;20056;-82
2023/12/17 08:33:07;;;;;;;20.20;10.02;;;9.10;99.90;;;;;;5070208;28;20052;-81
2023/12/17 08:35:36;;;;;;;20.08;10.32;;;9.10;99.90;;;;;;5073503;28;20044;-81
2023/12/17 08:38:05;;;;;;;17.65;10.23;;;9.10;99.90;;;;;;5067144;28;20076;-82
2023/12/17 08:40:39;;;;;;;16.63;9.05;;;9.10;99.90;;;;;;5074674;28;20086;-80
2023/12/17 08:43:09;;;;;;;15.35;8.75;;;9.10;99.90;;;;;;5074922;28;20045;-80
2023/12/17 08:45:35;;;;;;;18.25;9.18;;;9.10;99.90;;;;;;5065051;28;20593;-81
2023/12/17 08:48:02;;;;;;;17.23;9.52;;;9.10;99.90;;;;;;5068028;28;20032;-81
2023/12/17 08:50:28;;;;;;;19.02;8.82;;;9.10;99.90;;;;;;5054881;28;20059;-81
2023/12/17 08:52:54;;;;;;;15.77;8.02;;;9.10;99.90;;;;;;5067474;28;20123;-81
2023/12/17 08:55:20;;;;;;;14.00;7.95;;;9.20;99.90;;;;;;5070663;28;20044;-81
2023/12/17 08:57:46;;;;;;;17.65;9.00;;;9.20;99.90;;;;;;5069549;28;20152;-76
2023/12/17 09:00:13;;;;;;;18.50;7.97;;;9.20;99.90;;;;;;5074188;28;20045;-81
2023/12/17 09:02:39;;;;;;;16.73;8.23;;;9.20;99.90;;;;;;5064651;28;20106;-82
2023/12/17 09:05:05;;;;;;;18.52;7.95;;;9.20;99.90;;;;;;5061952;28;20120;-81
2023/12/17 09:07:31;;;;;;;19.00;8.88;;;9.20;99.90;;;;;;5056849;28;20211;-81
2023/12/17 09:09:57;;;;;;;15.55;7.72;;;9.40;99.90;;;;;;5057097;28;20121;-82
2023/12/17 09:12:22;;;;;;;15.25;7.93;;;9.30;99.90;;;;;;5065088;28;20041;-81
2023/12/17 09:14:49;;;;;;;16.15;8.05;;;9.20;99.90;;;;;;5060351;28;20056;-81
2023/12/17 09:17:15;;;;;;;19.98;9.13;;;9.20;99.90;;;;;;5067879;28;20568;-87
2023/12/17 09:19:41;;;;;;;25.23;8.40;;;9.20;99.90;;;;;;5039097;28;20136;-87
2023/12/17 09:22:07;;;;;;;20.38;8.88;;;9.20;99.90;;;;;;5058079;28;20435;-85
2023/12/17 09:24:32;;;;;;;20.33;8.63;;;9.40;99.90;;;;;;5075593;28;20049;-85
2023/12/17 09:27:00;;;;;;;20.05;8.35;;;9.20;99.90;;;;;;5075764;28;20052;-86
2023/12/17 09:29:26;;;;;;;22.17;8.70;;;9.30;99.90;;;;;;5070862;28;20048;-83
2023/12/17 09:31:51;;;;;;;25.00;9.60;;;9.30;99.90;;;;;;5060489;28;20099;-84
2023/12/17 09:34:17;;;;;;;21.05;9.30;;;9.30;99.90;;;;;;5056274;28;20116;-84
2023/12/17 09:36:43;;;;;;;24.60;10.25;;;9.30;99.90;;;;;;5058530;28;20084;-82
2023/12/17 09:39:12;;;;;;;20.83;10.00;;;9.30;99.90;;;;;;5059841;28;20080;-82
2023/12/17 09:41:41;;;;;;;23.17;10.60;;;9.30;99.90;;;;;;5066024;28;20403;-79
2023/12/17 09:44:08;;;;;;;28.20;10.23;;;9.30;99.90;;;;;;5066908;28;20415;-82
2023/12/17 09:46:35;;;;;;;24.52;11.18;;;9.30;99.90;;;;;;5069280;28;20065;-83
2023/12/17 09:49:01;;;;;;;27.40;10.93;;;9.50;99.90;;;;;;5052766;28;20048;-86
2023/12/17 09:51:28;;;;;;;23.33;10.50;;;9.30;99.90;;;;;;5055370;28;20048;-85
2023/12/17 09:53:57;;;;;;;22.35;11.00;;;9.40;99.90;;;;;;5064061;28;20495;-82
2023/12/17 09:56:23;;;;;;;22.38;10.02;;;9.40;99.90;;;;;;5071494;28;20136;-81
2023/12/17 09:58:49;;;;;;;25.52;11.05;;;9.40;99.90;;;;;;5070632;28;20055;-80
2023/12/17 10:01:15;;;;;;;25.90;10.80;;;9.40;99.90;;;;;;5058189;28;20041;-80
2023/12/17 10:03:40;;;;;;;23.40;10.00;;;9.40;99.90;;;;;;5059745;28;20044;-80
2023/12/17 10:06:06;;;;;;;17.83;9.60;;;9.40;99.90;;;;;;5075603;28;20396;-82
2023/12/17 10:08:33;;;;;;;26.27;11.32;;;9.40;99.90;;;;;;5064475;28;20052;-81
2023/12/17 10:11:00;;;;;;;20.38;10.27;;;9.50;99.90;;;;;;5055434;28;20800;-81
2023/12/17 10:13:26;;;;;;;19.13;9.52;;;9.50;99.90;;;;;;5074555;28;20438;-81
2023/12/17 10:15:55;;;;;;;18.55;9.15;;;9.50;99.90;;;;;;5058650;28;20123;-80
2023/12/17 10:18:22;;;;;;;21.38;9.63;;;9.50;99.90;;;;;;5058450;28;20455;-82
2023/12/17 10:20:49;;;;;;;23.83;9.25;;;9.50;99.90;;;;;;5053392;28;20053;-82
2023/12/17 10:23:15;;;;;;;23.70;9.43;;;9.50;99.90;;;;;;5055419;28;20048;-81
2023/12/17 10:25:44;;;;;;;21.70;9.77;;;9.50;99.90;;;;;;5062190;28;20042;-82
2023/12/17 10:28:11;;;;;;;21.98;10.85;;;9.50;99.90;;;;;;5066308;28;20123;-80
2023/12/17 10:30:38;;;;;;;19.52;10.93;;;9.50;99.90;;;;;;5059117;28;20051;-82
2023/12/17 10:33:10;;;;;;;20.33;12.43;;;9.60;99.90;;;;;;5065642;28;20037;-80
2023/12/17 10:35:37;;;;;;;21.10;12.20;;;9.50;99.90;;;;;;5065743;28;20042;-81
2023/12/17 10:38:06;;;;;;;22.60;12.23;;;9.60;99.90;;;;;;5067584;28;20040;-80
2023/12/17 10:40:40;;;;;;;27.30;14.55;;;9.50;99.90;;;;;;5066791;28;20491;-82
2023/12/17 10:43:06;;;;;;;27.90;14.45;;;9.50;99.90;;;;;;5068326;28;20048;-81
2023/12/17 10:45:34;;;;;;;25.55;14.40;;;9.70;99.90;;;;;;5058345;28;20053;-80
2023/12/17 10:48:01;;;;;;;31.30;15.40;;;9.60;99.90;;;;;;5057354;28;20119;-80
2023/12/17 10:50:27;;;;;;;30.17;16.20;;;9.60;99.90;;;;;;5058077;28;20416;-81
2023/12/17 10:52:53;;;;;;;37.10;16.77;;;9.60;99.90;;;;;;5063169;28;20040;-80
2023/12/17 10:55:20;;;;;;;36.53;17.27;;;9.60;99.90;;;;;;5054603;28;20052;-81
2023/12/17 10:58:08;;;;;;;31.80;16.88;;;9.80;99.90;;;;;;5064225;28;20570;-80
2023/12/17 11:00:37;;;;;;;34.50;16.73;;;9.60;99.90;;;;;;5052548;28;20041;-80
2023/12/17 11:03:05;;;;;;;34.70;17.20;;;9.70;99.90;;;;;;5053950;28;20029;-80
2023/12/17 11:05:31;;;;;;;31.92;17.52;;;9.60;99.90;;;;;;5071870;28;20056;-80
2023/12/17 11:07:56;;;;;;;31.17;17.45;;;9.70;99.90;;;;;;5070968;28;20052;-80
2023/12/17 11:10:23;;;;;;;37.90;18.25;;;9.70;99.90;;;;;;5067391;28;20536;-80
2023/12/17 11:12:49;;;;;;;29.58;16.70;;;9.70;99.90;;;;;;5067255;28;20052;-81
2023/12/17 11:15:21;;;;;;;31.73;16.90;;;9.80;99.90;;;;;;5063363;28;20049;-81
2023/12/17 11:17:47;;;;;;;28.42;16.13;;;9.70;99.90;;;;;;5063317;28;20067;-79
2023/12/17 11:20:13;;;;;;;28.15;15.48;;;9.70;99.90;;;;;;5071585;28;20071;-80
2023/12/17 11:22:39;;;;;;;29.58;14.57;;;9.70;99.90;;;;;;5070590;28;20066;-79
2023/12/17 11:25:14;;;;;;;27.05;14.68;;;9.80;99.90;;;;;;5063367;28;20059;-79
2023/12/17 11:27:40;;;;;;;27.63;13.02;;;9.70;99.90;;;;;;5054249;28;20045;-80
2023/12/17 11:30:28;;;;;;;24.88;14.82;;;9.70;99.90;;;;;;5052482;28;20641;-81
2023/12/17 11:32:55;;;;;;;27.35;14.38;;;9.70;99.90;;;;;;5070848;28;20476;-80
2023/12/17 11:35:21;;;;;;;26.42;14.68;;;9.70;99.90;;;;;;5064747;28;20040;-80
2023/12/17 11:37:47;;;;;;;23.38;13.38;;;9.70;99.90;;;;;;5059988;28;20132;-82
2023/12/17 11:40:13;;;;;;;23.80;13.05;;;9.70;99.90;;;;;;5062618;28;20045;-80
2023/12/17 11:42:40;;;;;;;24.33;13.02;;;9.70;99.90;;;;;;5056181;28;20106;-81
2023/12/17 11:45:06;;;;;;;22.52;13.32;;;9.70;99.90;;;;;;5055463;28;20447;-81
2023/12/17 11:47:32;;;;;;;21.58;12.73;;;9.70;99.90;;;;;;5053757;28;20144;-79
2023/12/17 11:50:02;;;;;;;21.80;12.68;;;9.70;99.90;;;;;;5056724;28;20055;-80
2023/12/17 11:52:29;;;;;;;22.65;12.65;;;9.70;99.90;;;;;;5063976;28;20037;-79
2023/12/17 11:55:04;;;;;;;23.10;12.43;;;9.70;99.90;;;;;;5055420;28;20065;-81
2023/12/17 11:57:30;;;;;;;22.80;11.32;;;9.70;99.90;;;;;;5042448;28;20503;-80
2023/12/17 11:59:56;;;;;;;18.73;11.07;;;9.70;99.90;;;;;;5055130;28;20045;-81
2023/12/17 12:02:27;;;;;;;24.80;12.45;;;9.80;99.90;;;;;;5059974;28;20048;-81
2023/12/17 12:04:55;;;;;;;26.80;13.02;;;10.00;99.90;;;;;;5034961;28;20052;-81
2023/12/17 12:07:20;;;;;;;22.70;12.00;;;9.80;99.90;;;;;;5060840;28;20049;-79
2023/12/17 12:09:47;;;;;;;18.50;11.50;;;9.70;99.90;;;;;;5052976;28;20063;-80
2023/12/17 12:12:21;;;;;;;20.65;11.55;;;9.70;99.90;;;;;;5059142;28;20051;-79
2023/12/17 12:14:48;;;;;;;;;;;9.70;99.90;;;;;;5053845;28;20041;-80
2023/12/17 12:17:39;;;;;;;20.58;11.60;;;9.70;99.90;;;;;;5061175;28;19928;-81
2023/12/17 12:20:12;;;;;;;20.08;11.43;;;9.70;99.90;;;;;;5057535;28;20534;-82
2023/12/17 12:22:45;;;;;;;20.85;10.55;;;9.70;99.90;;;;;;5053846;28;20535;-84
2023/12/17 12:25:12;;;;;;;20.73;12.27;;;9.70;99.90;;;;;;5061660;28;20047;-82
2023/12/17 12:27:38;;;;;;;23.00;12.45;;;9.70;99.90;;;;;;5061757;28;20121;-83
2023/12/17 12:30:05;;;;;;;20.23;11.52;;;9.70;99.90;;;;;;5060535;28;20480;-81
2023/12/17 12:32:34;;;;;;;19.58;11.20;;;9.70;99.90;;;;;;5055491;28;20356;-83
2023/12/17 12:35:00;;;;;;;21.60;10.85;;;9.70;99.90;;;;;;5070547;28;20131;-82
2023/12/17 12:37:37;;;;;;;21.98;12.23;;;9.70;99.90;;;;;;5039627;28;20149;-82
2023/12/17 12:40:05;;;;;;;20.05;12.02;;;9.70;99.90;;;;;;5057293;28;20049;-84
2023/12/17 12:42:31;;;;;;;19.15;11.07;;;9.60;99.90;;;;;;5067906;28;20461;-83